AUA186G EDDM-LOWW
Flight info
| Callsign | AUA186G |
|---|---|
| Flight time | 0h 50m |
| Altitude | 23000 |
| Route | KIRDI3S KIRDI DCT BUWOQ DCT MASUR MASUR3W |
| Aircraft | A321/M-SDE3FGHIRWY/LB1 |
Departure
| Time | 2026-05-06 19:51 |
|---|---|
| Airport | Munich Airport (EDDM) |
Arrival
| Time | 2026-05-06 20:42 |
|---|---|
| Airport | Vienna International Airport (LOWW) |
| Time | Latitude | Longitude | Altitude | Speed | Heading |
|---|---|---|---|---|---|
| 2026-05-06 19:29 | 48.35632 | 11.79980 | 1485 ft | 0 kts | 264° |
| 2026-05-06 19:32 | 48.35632 | 11.79979 | 1486 ft | 0 kts | 264° |
| 2026-05-06 19:39 | 48.35632 | 11.79980 | 1458 ft | 0 kts | 264° |
| 2026-05-06 19:42 | 48.35633 | 11.79993 | 1475 ft | 4 kts | 263° |
| 2026-05-06 19:42 | 48.35636 | 11.80033 | 1480 ft | 4 kts | 263° |
| 2026-05-06 19:43 | 48.35641 | 11.80064 | 1476 ft | 4 kts | 204° |
| 2026-05-06 19:43 | 48.35659 | 11.80067 | 1471 ft | 3 kts | 173° |
| 2026-05-06 19:43 | 48.35678 | 11.80064 | 1473 ft | 0 kts | 173° |
| 2026-05-06 19:45 | 48.35674 | 11.80065 | 1478 ft | 3 kts | 173° |
| 2026-05-06 19:45 | 48.35610 | 11.80076 | 1478 ft | 13 kts | 173° |
| 2026-05-06 19:46 | 48.35518 | 11.80091 | 1485 ft | 13 kts | 174° |
| 2026-05-06 19:46 | 48.35431 | 11.80107 | 1481 ft | 12 kts | 174° |
| 2026-05-06 19:46 | 48.35350 | 11.80129 | 1478 ft | 11 kts | 173° |
| 2026-05-06 19:46 | 48.35273 | 11.80141 | 1484 ft | 11 kts | 173° |
| 2026-05-06 19:47 | 48.35200 | 11.80153 | 1471 ft | 10 kts | 176° |
| 2026-05-06 19:47 | 48.35162 | 11.80088 | 1479 ft | 9 kts | 260° |
| 2026-05-06 19:47 | 48.35153 | 11.79993 | 1483 ft | 11 kts | 263° |
| 2026-05-06 19:47 | 48.35140 | 11.79829 | 1473 ft | 19 kts | 263° |
| 2026-05-06 19:48 | 48.35130 | 11.79704 | 1485 ft | 10 kts | 257° |
| 2026-05-06 19:48 | 48.35054 | 11.79667 | 1479 ft | 13 kts | 176° |
| 2026-05-06 19:48 | 48.34945 | 11.79679 | 1484 ft | 18 kts | 174° |
| 2026-05-06 19:48 | 48.34868 | 11.79692 | 1475 ft | 6 kts | 173° |
| 2026-05-06 19:49 | 48.34818 | 11.79714 | 1478 ft | 11 kts | 148° |
| 2026-05-06 19:49 | 48.34814 | 11.79846 | 1485 ft | 16 kts | 83° |
| 2026-05-06 19:49 | 48.34827 | 11.80021 | 1481 ft | 16 kts | 84° |
| 2026-05-06 19:49 | 48.34806 | 11.80172 | 1473 ft | 14 kts | 125° |
| 2026-05-06 19:50 | 48.34732 | 11.80242 | 1481 ft | 13 kts | 171° |
| 2026-05-06 19:50 | 48.34648 | 11.80258 | 1486 ft | 12 kts | 173° |
| 2026-05-06 19:50 | 48.34547 | 11.80274 | 1482 ft | 16 kts | 174° |
| 2026-05-06 19:50 | 48.34463 | 11.80215 | 1486 ft | 14 kts | 250° |
| 2026-05-06 19:51 | 48.34444 | 11.79993 | 1486 ft | 44 kts | 263° |
| 2026-05-06 19:51 | 48.34382 | 11.79187 | 1486 ft | 108 kts | 263° |
| 2026-05-06 19:51 | 48.34280 | 11.77827 | 1639 ft | 141 kts | 263° |
| 2026-05-06 19:51 | 48.34182 | 11.76393 | 2370 ft | 138 kts | 263° |
| 2026-05-06 19:52 | 48.34084 | 11.74947 | 2948 ft | 146 kts | 265° |
| 2026-05-06 19:52 | 48.33974 | 11.73307 | 3220 ft | 169 kts | 265° |
| 2026-05-06 19:52 | 48.33596 | 11.71539 | 3510 ft | 194 kts | 237° |
| 2026-05-06 19:52 | 48.32375 | 11.70460 | 3992 ft | 222 kts | 199° |
| 2026-05-06 19:53 | 48.30824 | 11.70309 | 4779 ft | 226 kts | 184° |
| 2026-05-06 19:53 | 48.29234 | 11.70604 | 5395 ft | 236 kts | 172° |
| 2026-05-06 19:53 | 48.27713 | 11.71713 | 5934 ft | 255 kts | 148° |
| 2026-05-06 19:53 | 48.26252 | 11.73422 | 6197 ft | 279 kts | 148° |
| 2026-05-06 19:54 | 48.24631 | 11.75168 | 6769 ft | 290 kts | 150° |
| 2026-05-06 19:54 | 48.22926 | 11.76879 | 7321 ft | 304 kts | 152° |
| 2026-05-06 19:54 | 48.21084 | 11.78671 | 7574 ft | 328 kts | 151° |
| 2026-05-06 19:54 | 48.19345 | 11.81054 | 7925 ft | 352 kts | 128° |
| 2026-05-06 19:55 | 48.18424 | 11.84495 | 8614 ft | 364 kts | 100° |
| 2026-05-06 19:55 | 48.18455 | 11.88308 | 9380 ft | 369 kts | 86° |
| 2026-05-06 19:55 | 48.18710 | 11.92148 | 10149 ft | 371 kts | 86° |
| 2026-05-06 19:55 | 48.19003 | 11.95995 | 10829 ft | 374 kts | 85° |
| 2026-05-06 19:56 | 48.19306 | 11.99878 | 11518 ft | 376 kts | 85° |
| 2026-05-06 19:56 | 48.19605 | 12.03794 | 12206 ft | 379 kts | 86° |
| 2026-05-06 19:56 | 48.19893 | 12.07738 | 12905 ft | 382 kts | 86° |
| 2026-05-06 19:56 | 48.20176 | 12.11705 | 13632 ft | 384 kts | 86° |
| 2026-05-06 19:57 | 48.20453 | 12.15706 | 14183 ft | 388 kts | 87° |
| 2026-05-06 19:57 | 48.20730 | 12.19750 | 14777 ft | 391 kts | 87° |
| 2026-05-06 19:57 | 48.21007 | 12.23821 | 15358 ft | 394 kts | 87° |
| 2026-05-06 19:57 | 48.21282 | 12.27922 | 15894 ft | 398 kts | 87° |
| 2026-05-06 19:58 | 48.21558 | 12.32068 | 16417 ft | 401 kts | 87° |
| 2026-05-06 19:58 | 48.21837 | 12.36243 | 16963 ft | 404 kts | 87° |
| 2026-05-06 19:58 | 48.22119 | 12.40444 | 17494 ft | 407 kts | 87° |
| 2026-05-06 19:58 | 48.22399 | 12.44621 | 17993 ft | 409 kts | 87° |
| 2026-05-06 19:59 | 48.22682 | 12.48883 | 18434 ft | 412 kts | 87° |
| 2026-05-06 19:59 | 48.22967 | 12.53168 | 18833 ft | 414 kts | 88° |
| 2026-05-06 19:59 | 48.23056 | 12.57471 | 19225 ft | 413 kts | 97° |
| 2026-05-06 19:59 | 48.22719 | 12.61744 | 19613 ft | 413 kts | 102° |
| 2026-05-06 20:00 | 48.22308 | 12.66017 | 20014 ft | 415 kts | 102° |
| 2026-05-06 20:00 | 48.21892 | 12.70331 | 20416 ft | 418 kts | 102° |
| 2026-05-06 20:00 | 48.21474 | 12.74653 | 20823 ft | 420 kts | 102° |
| 2026-05-06 20:00 | 48.21056 | 12.79000 | 21228 ft | 423 kts | 102° |
| 2026-05-06 20:01 | 48.20780 | 12.83413 | 21643 ft | 429 kts | 94° |
| 2026-05-06 20:01 | 48.20841 | 12.87903 | 22059 ft | 433 kts | 92° |
| 2026-05-06 20:01 | 48.20917 | 12.92427 | 22468 ft | 435 kts | 92° |
| 2026-05-06 20:01 | 48.20989 | 12.96991 | 22749 ft | 441 kts | 93° |
| 2026-05-06 20:02 | 48.21054 | 13.01606 | 23121 ft | 445 kts | 93° |
| 2026-05-06 20:02 | 48.21137 | 13.06260 | 23499 ft | 449 kts | 89° |
| 2026-05-06 20:02 | 48.21660 | 13.10919 | 23810 ft | 456 kts | 81° |
| 2026-05-06 20:02 | 48.22319 | 13.15583 | 24140 ft | 459 kts | 81° |
| 2026-05-06 20:03 | 48.22982 | 13.20278 | 24467 ft | 461 kts | 81° |
| 2026-05-06 20:03 | 48.23649 | 13.25005 | 24788 ft | 464 kts | 81° |
| 2026-05-06 20:03 | 48.24318 | 13.29754 | 25109 ft | 467 kts | 81° |
| 2026-05-06 20:03 | 48.24989 | 13.34532 | 25428 ft | 470 kts | 81° |
| 2026-05-06 20:04 | 48.25656 | 13.39332 | 25720 ft | 472 kts | 82° |
| 2026-05-06 20:04 | 48.26325 | 13.44185 | 25959 ft | 477 kts | 82° |
| 2026-05-06 20:04 | 48.26995 | 13.49080 | 26241 ft | 480 kts | 82° |
| 2026-05-06 20:04 | 48.27669 | 13.54005 | 26535 ft | 483 kts | 82° |
| 2026-05-06 20:05 | 48.28345 | 13.58946 | 26869 ft | 485 kts | 81° |
| 2026-05-06 20:05 | 48.29025 | 13.63924 | 27206 ft | 487 kts | 81° |
| 2026-05-06 20:05 | 48.29695 | 13.68851 | 27498 ft | 489 kts | 81° |
| 2026-05-06 20:05 | 48.30381 | 13.73930 | 27789 ft | 491 kts | 82° |
| 2026-05-06 20:06 | 48.31053 | 13.78905 | 28064 ft | 494 kts | 82° |
| 2026-05-06 20:06 | 48.31735 | 13.83978 | 28321 ft | 496 kts | 82° |
| 2026-05-06 20:06 | 48.32418 | 13.89069 | 28507 ft | 499 kts | 82° |
| 2026-05-06 20:06 | 48.33104 | 13.94204 | 28651 ft | 503 kts | 82° |
| 2026-05-06 20:07 | 48.33790 | 13.99368 | 28798 ft | 502 kts | 82° |
| 2026-05-06 20:07 | 48.34466 | 14.04455 | 28818 ft | 493 kts | 82° |
| 2026-05-06 20:07 | 48.35798 | 14.14508 | 28831 ft | 488 kts | 82° |
| 2026-05-06 20:08 | 48.37106 | 14.24526 | 28829 ft | 488 kts | 82° |
| 2026-05-06 20:08 | 48.38406 | 14.34545 | 28781 ft | 488 kts | 82° |
| 2026-05-06 20:09 | 48.39049 | 14.39517 | 28829 ft | 476 kts | 82° |
| 2026-05-06 20:09 | 48.39672 | 14.44327 | 28736 ft | 460 kts | 83° |
| 2026-05-06 20:09 | 48.40273 | 14.48971 | 28596 ft | 445 kts | 83° |
| 2026-05-06 20:09 | 48.40853 | 14.53460 | 28446 ft | 430 kts | 83° |
| 2026-05-06 20:10 | 48.41411 | 14.57799 | 28305 ft | 415 kts | 83° |
| 2026-05-06 20:10 | 48.41944 | 14.61992 | 28160 ft | 401 kts | 84° |
| 2026-05-06 20:10 | 48.42453 | 14.66027 | 27526 ft | 396 kts | 84° |
| 2026-05-06 20:10 | 48.42959 | 14.70062 | 27064 ft | 389 kts | 84° |
| 2026-05-06 20:11 | 48.43457 | 14.74052 | 26412 ft | 386 kts | 84° |
| 2026-05-06 20:11 | 48.43949 | 14.77998 | 25811 ft | 382 kts | 84° |
| 2026-05-06 20:11 | 48.44436 | 14.81905 | 25287 ft | 377 kts | 84° |
| 2026-05-06 20:11 | 48.44916 | 14.85724 | 25108 ft | 365 kts | 84° |
| 2026-05-06 20:12 | 48.45381 | 14.89443 | 24787 ft | 358 kts | 84° |
| 2026-05-06 20:12 | 48.45836 | 14.93110 | 24386 ft | 354 kts | 84° |
| 2026-05-06 20:12 | 48.46283 | 14.96731 | 24017 ft | 349 kts | 84° |
| 2026-05-06 20:12 | 48.46723 | 15.00308 | 23616 ft | 345 kts | 84° |
| 2026-05-06 20:13 | 48.47156 | 15.03841 | 23247 ft | 341 kts | 85° |
| 2026-05-06 20:13 | 48.47583 | 15.07338 | 22798 ft | 337 kts | 85° |
| 2026-05-06 20:13 | 48.48005 | 15.10793 | 22374 ft | 334 kts | 85° |
| 2026-05-06 20:13 | 48.48423 | 15.14211 | 21962 ft | 330 kts | 85° |
| 2026-05-06 20:14 | 48.48836 | 15.17596 | 21553 ft | 327 kts | 85° |
| 2026-05-06 20:14 | 48.49244 | 15.20954 | 21127 ft | 324 kts | 85° |
| 2026-05-06 20:14 | 48.49649 | 15.24282 | 20712 ft | 322 kts | 85° |
| 2026-05-06 20:14 | 48.50051 | 15.27590 | 20323 ft | 319 kts | 85° |
| 2026-05-06 20:15 | 48.50447 | 15.30866 | 19919 ft | 316 kts | 84° |
| 2026-05-06 20:15 | 48.50838 | 15.34113 | 19539 ft | 313 kts | 84° |
| 2026-05-06 20:15 | 48.51225 | 15.37321 | 19164 ft | 310 kts | 84° |
| 2026-05-06 20:15 | 48.51606 | 15.40507 | 18790 ft | 308 kts | 85° |
| 2026-05-06 20:16 | 48.51856 | 15.43693 | 18409 ft | 302 kts | 92° |
| 2026-05-06 20:16 | 48.51881 | 15.46838 | 18032 ft | 298 kts | 97° |
| 2026-05-06 20:16 | 48.51771 | 15.49945 | 17659 ft | 294 kts | 100° |
| 2026-05-06 20:16 | 48.51660 | 15.51971 | 17414 ft | 292 kts | 101° |
| 2026-05-06 20:17 | 48.51468 | 15.55009 | 17044 ft | 290 kts | 101° |
| 2026-05-06 20:17 | 48.51269 | 15.58027 | 16657 ft | 288 kts | 101° |
| 2026-05-06 20:17 | 48.51076 | 15.61025 | 16295 ft | 287 kts | 100° |
| 2026-05-06 20:17 | 48.50892 | 15.64009 | 15941 ft | 285 kts | 100° |
| 2026-05-06 20:18 | 48.50713 | 15.66980 | 15574 ft | 284 kts | 99° |
| 2026-05-06 20:18 | 48.50539 | 15.69935 | 15245 ft | 282 kts | 99° |
| 2026-05-06 20:18 | 48.50369 | 15.72871 | 14912 ft | 280 kts | 99° |
| 2026-05-06 20:18 | 48.50200 | 15.75788 | 14594 ft | 278 kts | 99° |
| 2026-05-06 20:19 | 48.50030 | 15.78680 | 14374 ft | 276 kts | 99° |
| 2026-05-06 20:19 | 48.49861 | 15.81566 | 14159 ft | 276 kts | 99° |
| 2026-05-06 20:19 | 48.49692 | 15.84436 | 13942 ft | 275 kts | 99° |
| 2026-05-06 20:19 | 48.49522 | 15.87297 | 13724 ft | 273 kts | 99° |
| 2026-05-06 20:20 | 48.49352 | 15.90148 | 13510 ft | 272 kts | 99° |
| 2026-05-06 20:20 | 48.49179 | 15.92988 | 13279 ft | 272 kts | 98° |
| 2026-05-06 20:20 | 48.49008 | 15.95818 | 13056 ft | 271 kts | 99° |
| 2026-05-06 20:20 | 48.48837 | 15.98637 | 12847 ft | 270 kts | 99° |
| 2026-05-06 20:21 | 48.48628 | 16.01439 | 12633 ft | 267 kts | 105° |
| 2026-05-06 20:21 | 48.48151 | 16.04122 | 12423 ft | 263 kts | 115° |
| 2026-05-06 20:21 | 48.47395 | 16.06610 | 12218 ft | 259 kts | 124° |
| 2026-05-06 20:21 | 48.46405 | 16.08847 | 12010 ft | 255 kts | 133° |
| 2026-05-06 20:22 | 48.45218 | 16.10805 | 11800 ft | 251 kts | 142° |
| 2026-05-06 20:22 | 48.43866 | 16.12444 | 11591 ft | 248 kts | 150° |
| 2026-05-06 20:22 | 48.42381 | 16.13730 | 11384 ft | 244 kts | 159° |
| 2026-05-06 20:22 | 48.40837 | 16.14753 | 11177 ft | 242 kts | 160° |
| 2026-05-06 20:23 | 48.39300 | 16.15764 | 10989 ft | 240 kts | 160° |
| 2026-05-06 20:23 | 48.37792 | 16.16757 | 10882 ft | 240 kts | 160° |
| 2026-05-06 20:23 | 48.36259 | 16.17766 | 10783 ft | 241 kts | 160° |
| 2026-05-06 20:23 | 48.34720 | 16.18779 | 10668 ft | 241 kts | 160° |
| 2026-05-06 20:24 | 48.33194 | 16.19833 | 10556 ft | 242 kts | 153° |
| 2026-05-06 20:24 | 48.31873 | 16.21424 | 10443 ft | 247 kts | 135° |
| 2026-05-06 20:24 | 48.30940 | 16.23625 | 10322 ft | 254 kts | 115° |
| 2026-05-06 20:24 | 48.30540 | 16.26220 | 10184 ft | 258 kts | 95° |
| 2026-05-06 20:25 | 48.30737 | 16.28906 | 10046 ft | 261 kts | 76° |
| 2026-05-06 20:25 | 48.31470 | 16.31405 | 9821 ft | 264 kts | 56° |
| 2026-05-06 20:25 | 48.32741 | 16.33360 | 9526 ft | 261 kts | 32° |
| 2026-05-06 20:25 | 48.34378 | 16.34447 | 9259 ft | 257 kts | 9° |
| 2026-05-06 20:26 | 48.36141 | 16.34553 | 9018 ft | 253 kts | 346° |
| 2026-05-06 20:26 | 48.37823 | 16.33838 | 8784 ft | 249 kts | 339° |
| 2026-05-06 20:26 | 48.39488 | 16.33098 | 8717 ft | 251 kts | 340° |
| 2026-05-06 20:26 | 48.41174 | 16.32379 | 8573 ft | 251 kts | 340° |
| 2026-05-06 20:27 | 48.42855 | 16.31674 | 8425 ft | 251 kts | 341° |
| 2026-05-06 20:27 | 48.44531 | 16.30978 | 8201 ft | 250 kts | 341° |
| 2026-05-06 20:27 | 48.46185 | 16.30303 | 8034 ft | 240 kts | 340° |
| 2026-05-06 20:27 | 48.47772 | 16.29648 | 7794 ft | 233 kts | 340° |
| 2026-05-06 20:28 | 48.49321 | 16.29017 | 7547 ft | 227 kts | 341° |
| 2026-05-06 20:28 | 48.50809 | 16.28419 | 7368 ft | 214 kts | 341° |
| 2026-05-06 20:28 | 48.52208 | 16.27869 | 7190 ft | 204 kts | 341° |
| 2026-05-06 20:28 | 48.53575 | 16.27340 | 6980 ft | 202 kts | 340° |
| 2026-05-06 20:29 | 48.54940 | 16.26816 | 6757 ft | 203 kts | 341° |
| 2026-05-06 20:29 | 48.56319 | 16.26348 | 6546 ft | 204 kts | 350° |
| 2026-05-06 20:29 | 48.57691 | 16.26826 | 6318 ft | 212 kts | 29° |
| 2026-05-06 20:29 | 48.58652 | 16.28492 | 6152 ft | 213 kts | 62° |
| 2026-05-06 20:30 | 48.59293 | 16.30481 | 6040 ft | 211 kts | 65° |
| 2026-05-06 20:30 | 48.59530 | 16.34669 | 5882 ft | 201 kts | 120° |
| 2026-05-06 20:30 | 48.58866 | 16.36488 | 5950 ft | 196 kts | 126° |
| 2026-05-06 20:31 | 48.58139 | 16.38295 | 5991 ft | 207 kts | 125° |
| 2026-05-06 20:31 | 48.57355 | 16.40174 | 5960 ft | 217 kts | 127° |
| 2026-05-06 20:31 | 48.56561 | 16.42130 | 5741 ft | 217 kts | 125° |
| 2026-05-06 20:31 | 48.55764 | 16.44065 | 5472 ft | 216 kts | 126° |
| 2026-05-06 20:32 | 48.54963 | 16.45969 | 5218 ft | 215 kts | 126° |
| 2026-05-06 20:32 | 48.53990 | 16.47605 | 4984 ft | 205 kts | 150° |
| 2026-05-06 20:32 | 48.52726 | 16.48346 | 4958 ft | 189 kts | 176° |
| 2026-05-06 20:32 | 48.51441 | 16.48308 | 4969 ft | 184 kts | 189° |
| 2026-05-06 20:33 | 48.50158 | 16.48184 | 4994 ft | 186 kts | 187° |
| 2026-05-06 20:33 | 48.48856 | 16.48089 | 5003 ft | 189 kts | 187° |
| 2026-05-06 20:33 | 48.47525 | 16.47980 | 5007 ft | 194 kts | 187° |
| 2026-05-06 20:33 | 48.46169 | 16.47856 | 5016 ft | 196 kts | 187° |
| 2026-05-06 20:34 | 48.44811 | 16.47735 | 5004 ft | 194 kts | 187° |
| 2026-05-06 20:34 | 48.43468 | 16.47625 | 4988 ft | 192 kts | 187° |
| 2026-05-06 20:34 | 48.42134 | 16.47522 | 4966 ft | 193 kts | 187° |
| 2026-05-06 20:34 | 48.40798 | 16.47425 | 4969 ft | 192 kts | 186° |
| 2026-05-06 20:35 | 48.39475 | 16.47338 | 4967 ft | 189 kts | 187° |
| 2026-05-06 20:35 | 48.38157 | 16.47244 | 4971 ft | 189 kts | 187° |
| 2026-05-06 20:35 | 48.36847 | 16.47264 | 4974 ft | 190 kts | 176° |
| 2026-05-06 20:35 | 48.35555 | 16.47794 | 4952 ft | 193 kts | 167° |
| 2026-05-06 20:36 | 48.34275 | 16.48357 | 4977 ft | 191 kts | 169° |
| 2026-05-06 20:36 | 48.32973 | 16.48896 | 4835 ft | 198 kts | 170° |
| 2026-05-06 20:36 | 48.31655 | 16.49432 | 4603 ft | 199 kts | 170° |
| 2026-05-06 20:36 | 48.30337 | 16.49972 | 4345 ft | 190 kts | 170° |
| 2026-05-06 20:37 | 48.29103 | 16.50498 | 4069 ft | 179 kts | 170° |
| 2026-05-06 20:37 | 48.27945 | 16.51011 | 3822 ft | 168 kts | 171° |
| 2026-05-06 20:37 | 48.26874 | 16.51494 | 3604 ft | 155 kts | 172° |
| 2026-05-06 20:37 | 48.25869 | 16.51943 | 3383 ft | 147 kts | 172° |
| 2026-05-06 20:38 | 48.24906 | 16.52358 | 3201 ft | 141 kts | 173° |
| 2026-05-06 20:38 | 48.23972 | 16.52744 | 3022 ft | 140 kts | 173° |
| 2026-05-06 20:38 | 48.23021 | 16.53129 | 2848 ft | 142 kts | 173° |
| 2026-05-06 20:38 | 48.22066 | 16.53521 | 2687 ft | 142 kts | 172° |
| 2026-05-06 20:39 | 48.21113 | 16.53918 | 2499 ft | 142 kts | 172° |
| 2026-05-06 20:39 | 48.20160 | 16.54315 | 2333 ft | 142 kts | 172° |
| 2026-05-06 20:39 | 48.19224 | 16.54713 | 2174 ft | 134 kts | 171° |
| 2026-05-06 20:39 | 48.18359 | 16.55096 | 1979 ft | 128 kts | 170° |
| 2026-05-06 20:40 | 48.17494 | 16.55477 | 1793 ft | 131 kts | 170° |
| 2026-05-06 20:40 | 48.16617 | 16.55851 | 1624 ft | 130 kts | 169° |
| 2026-05-06 20:40 | 48.15741 | 16.56219 | 1467 ft | 131 kts | 167° |
| 2026-05-06 20:40 | 48.14869 | 16.56583 | 1244 ft | 131 kts | 168° |
| 2026-05-06 20:41 | 48.14019 | 16.56949 | 1096 ft | 123 kts | 165° |
| 2026-05-06 20:41 | 48.13185 | 16.57305 | 907 ft | 128 kts | 164° |
| 2026-05-06 20:41 | 48.12318 | 16.57676 | 736 ft | 132 kts | 165° |
| 2026-05-06 20:41 | 48.11436 | 16.58049 | 624 ft | 124 kts | 165° |
| 2026-05-06 20:42 | 48.10705 | 16.58356 | 620 ft | 78 kts | 164° |
| 2026-05-06 20:42 | 48.10393 | 16.58464 | 618 ft | 36 kts | 179° |
| 2026-05-06 20:42 | 48.10189 | 16.58423 | 625 ft | 20 kts | 193° |
| 2026-05-06 20:42 | 48.10144 | 16.58323 | 610 ft | 12 kts | 311° |
| 2026-05-06 20:43 | 48.10221 | 16.58280 | 622 ft | 12 kts | 343° |
| 2026-05-06 20:43 | 48.10312 | 16.58242 | 624 ft | 18 kts | 345° |
| 2026-05-06 20:43 | 48.10437 | 16.58190 | 616 ft | 18 kts | 344° |
| 2026-05-06 20:43 | 48.10555 | 16.58139 | 620 ft | 17 kts | 344° |
| 2026-05-06 20:44 | 48.10673 | 16.58091 | 624 ft | 19 kts | 345° |
| 2026-05-06 20:44 | 48.10807 | 16.58034 | 619 ft | 20 kts | 343° |
| 2026-05-06 20:44 | 48.10936 | 16.57979 | 617 ft | 19 kts | 345° |
| 2026-05-06 20:44 | 48.11058 | 16.57928 | 611 ft | 18 kts | 344° |
| 2026-05-06 20:45 | 48.11173 | 16.57878 | 622 ft | 17 kts | 343° |
| 2026-05-06 20:45 | 48.11282 | 16.57833 | 617 ft | 16 kts | 343° |
| 2026-05-06 20:45 | 48.11385 | 16.57789 | 613 ft | 15 kts | 344° |
| 2026-05-06 20:45 | 48.11496 | 16.57743 | 616 ft | 19 kts | 345° |
| 2026-05-06 20:46 | 48.11624 | 16.57685 | 619 ft | 19 kts | 343° |
| 2026-05-06 20:46 | 48.11747 | 16.57636 | 614 ft | 18 kts | 346° |
| 2026-05-06 20:46 | 48.11830 | 16.57541 | 625 ft | 15 kts | 272° |
| 2026-05-06 20:46 | 48.11807 | 16.57389 | 621 ft | 15 kts | 265° |
| 2026-05-06 20:47 | 48.11842 | 16.57252 | 615 ft | 14 kts | 296° |
| 2026-05-06 20:47 | 48.11863 | 16.57116 | 624 ft | 13 kts | 291° |
| 2026-05-06 20:47 | 48.11901 | 16.56999 | 616 ft | 12 kts | 296° |
| 2026-05-06 20:47 | 48.11933 | 16.56897 | 623 ft | 7 kts | 290° |
| 2026-05-06 20:48 | 48.11913 | 16.56847 | 619 ft | 6 kts | 212° |
| 2026-05-06 20:48 | 48.11883 | 16.56825 | 615 ft | 2 kts | 206° |
| 2026-05-06 20:48 | 48.11883 | 16.56824 | 614 ft | 0 kts | 206° |